Time;durP1;ratioP1;P1;durP2;ratioP2;P2;SDS_P1;SDS_P2;PMS_P1;PMS_P2;Temp;Humidity;BMP_temperature;BMP_pressure;BME280_temperature;BME280_humidity;BME280_pressure;Samples;Min_cycle;Max_cycle;Signal;HPM_P1;HPM_P2
2022/01/07 00:00:47;;;;;;;59.40;35.28;;;;;;;29.07;59.68;101210.13;5017071;28;66149;-40
2022/01/07 00:03:18;;;;;;;67.30;37.22;;;;;;;29.17;59.75;101216.00;5035348;28;69912;-40
2022/01/07 00:05:48;;;;;;;91.72;37.60;;;;;;;29.25;60.11;101223.06;5011825;28;65821;-36
2022/01/07 00:08:19;;;;;;;93.70;37.28;;;;;;;29.32;60.67;101230.16;4996324;28;70190;-36
2022/01/07 00:10:49;;;;;;;70.03;38.50;;;;;;;29.38;60.45;101240.16;5014613;28;67406;-36
2022/01/07 00:13:20;;;;;;;92.10;40.03;;;;;;;29.39;60.89;101231.03;5007047;28;70242;-37
2022/01/07 00:15:52;;;;;;;78.30;39.45;;;;;;;29.49;61.42;101246.03;5015398;28;65708;-38
2022/01/07 00:18:24;;;;;;;80.20;40.03;;;;;;;29.48;61.39;101242.50;5014286;28;70142;-39
2022/01/07 00:20:54;;;;;;;81.50;39.30;;;;;;;29.57;61.91;101259.38;5012732;28;65897;-38
2022/01/07 00:23:25;;;;;;;76.65;39.45;;;;;;;29.61;61.64;101249.81;5011864;28;70619;-37
2022/01/07 00:25:55;;;;;;;72.13;40.50;;;;;;;29.61;62.88;101260.63;5016147;28;66427;-37
2022/01/07 00:28:25;;;;;;;80.57;42.53;;;;;;;29.59;62.33;101257.31;5017320;28;68604;-38
2022/01/07 00:30:56;;;;;;;90.35;48.10;;;;;;;29.68;63.52;101261.53;5017591;28;65751;-38
2022/01/07 00:33:27;;;;;;;97.43;53.20;;;;;;;29.71;63.33;101277.34;5017872;28;70416;-39
2022/01/07 00:35:59;;;;;;;69.70;43.58;;;;;;;29.66;63.58;101268.19;5011052;28;66518;-38
2022/01/07 00:38:30;;;;;;;66.00;40.97;;;;;;;29.69;63.77;101283.97;5014357;28;70193;-38
2022/01/07 00:41:00;;;;;;;58.17;38.55;;;;;;;29.71;63.32;101280.03;5011493;28;66014;-38
2022/01/07 00:43:30;;;;;;;57.38;39.83;;;;;;;29.75;63.21;101294.81;5016080;28;70286;-37
2022/01/07 00:46:01;;;;;;;58.53;38.00;;;;;;;29.72;62.98;101292.50;5020970;28;66012;-38
2022/01/07 00:48:31;;;;;;;67.95;39.33;;;;;;;29.71;63.12;101276.50;5021225;28;69674;-38
2022/01/07 00:51:01;;;;;;;54.65;37.85;;;;;;;29.84;62.64;101299.03;5012318;28;66537;-38
2022/01/07 00:53:31;;;;;;;61.15;39.90;;;;;;;29.88;62.81;101304.03;5015709;28;70293;-39
2022/01/07 00:56:02;;;;;;;64.57;39.83;;;;;;;29.54;62.78;101248.97;5012570;28;66116;-38
2022/01/07 00:58:32;;;;;;;55.42;37.53;;;;;;;29.94;62.21;101308.59;5014901;28;70058;-39
2022/01/07 01:01:03;;;;;;;53.30;36.03;;;;;;;29.97;62.09;101313.59;5014643;28;66155;-37
2022/01/07 01:03:34;;;;;;;69.53;40.70;;;;;;;29.90;62.54;101307.38;5010655;28;69568;-38
2022/01/07 01:06:04;;;;;;;49.90;36.03;;;;;;;30.00;61.79;101322.16;5016859;28;66435;-39
2022/01/07 01:08:35;;;;;;;56.55;37.58;;;;;;;29.97;62.39;101313.59;5017149;28;70050;-39
2022/01/07 01:11:06;;;;;;;54.40;36.75;;;;;;;30.01;61.70;101323.81;5015691;28;66915;-39
2022/01/07 01:13:36;;;;;;;48.90;35.90;;;;;;;30.05;62.03;101326.94;5015993;28;69557;-40
2022/01/07 01:16:07;;;;;;;56.38;36.80;;;;;;;29.94;62.03;101305.91;5016968;28;66264;-39
2022/01/07 01:18:37;;;;;;;54.25;36.22;;;;;;;30.09;61.31;101328.22;5015933;28;70627;-39
2022/01/07 01:21:07;;;;;;;54.85;35.10;;;;;;;30.10;61.31;101319.06;5015971;28;65144;-40
2022/01/07 01:23:40;;;;;;;56.75;36.13;;;;;;;30.13;61.74;101332.19;5011069;28;69649;-38
2022/01/07 01:26:10;;;;;;;53.63;35.38;;;;;;;30.12;61.03;101324.28;5011819;28;67110;-38
2022/01/07 01:28:41;;;;;;;57.03;36.05;;;;;;;30.15;61.11;101327.41;5009381;28;69251;-40
2022/01/07 01:31:14;;;;;;;53.72;35.15;;;;;;;30.05;61.10;101314.25;5012127;28;66251;-39
2022/01/07 01:33:46;;;;;;;46.97;32.92;;;;;;;30.19;61.26;101325.13;5007966;28;69913;-39
2022/01/07 01:36:16;;;;;;;52.47;35.03;;;;;;;30.08;60.97;101315.72;5015842;28;65687;-39
2022/01/07 01:38:47;;;;;;;52.22;35.08;;;;;;;30.19;60.99;101325.94;5013900;28;71399;-38
2022/01/07 01:41:18;;;;;;;44.85;31.25;;;;;;;30.22;61.15;101328.25;5016352;28;66463;-38
2022/01/07 01:43:49;;;;;;;47.10;32.20;;;;;;;30.24;61.23;101326.19;5014779;28;69427;-40
2022/01/07 01:46:20;;;;;;;47.97;30.27;;;;;;;30.16;61.16;101312.00;5005169;28;66344;-38
2022/01/07 01:48:52;;;;;;;49.58;32.08;;;;;;;30.22;60.92;101314.72;5012995;28;69666;-38
2022/01/07 01:51:22;;;;;;;46.10;31.83;;;;;;;30.30;60.70;101326.41;5015686;28;65437;-38
2022/01/07 01:53:53;;;;;;;44.90;30.52;;;;;;;30.30;60.60;101334.53;5012591;28;70216;-38
2022/01/07 01:56:24;;;;;;;41.63;30.77;;;;;;;30.17;60.48;101305.53;5013318;28;67512;-38
2022/01/07 01:58:57;;;;;;;42.65;29.30;;;;;;;30.32;60.68;101325.19;5012935;28;70017;-39
2022/01/07 02:01:35;;;;;;;46.33;30.42;;;;;;;30.10;60.59;101286.59;5014362;28;66081;-39
2022/01/07 02:04:05;;;;;;;48.22;31.90;;;;;;;30.34;60.12;101319.53;5013909;28;70319;-38
2022/01/07 02:06:36;;;;;;;56.38;33.33;;;;;;;30.39;59.88;101333.28;5026664;28;66068;-40
2022/01/07 02:09:07;;;;;;;48.60;32.50;;;;;;;30.35;59.87;101332.88;5013240;28;70895;-37
2022/01/07 02:11:39;;;;;;;;;;;;;;;30.10;60.87;101334.47;5010778;28;66208;-38
2022/01/07 02:14:09;;;;;;;45.15;28.50;;;;;;;30.37;60.22;101329.94;5008418;28;70055;-38
2022/01/07 02:16:39;;;;;;;42.67;30.27;;;;;;;30.36;60.23;101317.47;5007153;28;66862;-40
2022/01/07 02:19:09;;;;;;;41.45;28.60;;;;;;;30.42;59.64;101322.03;5011951;28;69521;-38
2022/01/07 02:21:40;;;;;;;41.92;29.38;;;;;;;30.45;59.62;101318.91;5009182;28;66326;-38
2022/01/07 02:24:10;;;;;;;43.95;30.65;;;;;;;30.46;59.63;101312.50;5006523;28;70376;-38
2022/01/07 02:26:41;;;;;;;42.13;29.83;;;;;;;30.48;59.84;101321.25;5016846;28;66625;-39
2022/01/07 02:29:11;;;;;;;41.00;29.25;;;;;;;30.50;59.32;101319.13;5006738;28;70149;-39
2022/01/07 02:31:42;;;;;;;;;;;;;;;30.22;60.30;101311.19;5010429;28;66163;-39
2022/01/07 02:34:14;;;;;;;42.88;28.83;;;;;;;30.48;59.92;101308.53;5011478;28;69667;-38
2022/01/07 02:36:44;;;;;;;41.33;28.13;;;;;;;30.51;59.54;101304.59;5016830;28;66160;-39
2022/01/07 02:39:14;;;;;;;36.97;27.70;;;;;;;30.55;59.36;101311.22;5018119;28;70076;-38
2022/01/07 02:41:45;;;;;;;40.78;28.73;;;;;;;30.57;59.64;101311.03;5019515;28;66187;-39
2022/01/07 02:44:15;;;;;;;37.97;27.95;;;;;;;30.60;58.96;101318.75;5016924;28;70298;-37
2022/01/07 02:46:45;;;;;;;38.30;28.23;;;;;;;30.61;59.33;101310.41;5019808;28;66318;-39
2022/01/07 02:49:18;;;;;;;41.22;27.15;;;;;;;30.64;59.21;101296.44;5016932;28;70228;-39
2022/01/07 02:51:48;;;;;;;39.80;28.25;;;;;;;30.61;59.18;101294.16;4996824;28;67753;-39
2022/01/07 02:54:19;;;;;;;37.70;25.90;;;;;;;30.65;59.03;101298.13;5017811;28;70517;-39
2022/01/07 02:56:49;;;;;;;39.67;28.27;;;;;;;30.66;58.91;101302.50;5018641;28;66516;-38
2022/01/07 02:59:20;;;;;;;40.80;27.55;;;;;;;30.69;58.81;101302.06;5019010;28;70175;-38
2022/01/07 03:01:51;;;;;;;36.03;25.60;;;;;;;30.71;58.61;101300.00;5017002;28;66173;-38
2022/01/07 03:04:24;;;;;;;35.17;25.20;;;;;;;30.72;58.67;101298.94;5016848;28;69486;-38
2022/01/07 03:06:54;;;;;;;40.65;27.85;;;;;;;30.75;58.48;101294.97;5015111;28;65914;-38
2022/01/07 03:09:24;;;;;;;35.83;24.08;;;;;;;30.77;59.02;101292.06;5018610;28;70182;-38
2022/01/07 03:11:54;;;;;;;39.53;26.52;;;;;;;30.78;58.63;101291.84;5017761;28;65274;-39
2022/01/07 03:14:25;;;;;;;33.33;26.25;;;;;;;30.79;58.60;101295.41;5018548;28;70652;-38
2022/01/07 03:16:58;;;;;;;38.65;26.85;;;;;;;30.84;58.23;101293.78;5018778;28;65609;-39
2022/01/07 03:19:29;;;;;;;35.97;26.65;;;;;;;30.86;58.18;101291.66;5016793;28;70722;-39
2022/01/07 03:22:00;;;;;;;31.58;24.58;;;;;;;30.85;58.53;101283.75;5014436;28;65633;-39
2022/01/07 03:24:30;;;;;;;33.00;24.70;;;;;;;30.88;58.41;101281.47;5013625;28;70383;-39
2022/01/07 03:27:00;;;;;;;31.40;24.92;;;;;;;30.87;58.06;101287.06;5009981;28;66661;-37
2022/01/07 03:29:31;;;;;;;27.80;23.73;;;;;;;30.87;58.22;101276.25;5009039;28;69327;-38
2022/01/07 03:32:01;;;;;;;35.38;24.80;;;;;;;30.96;57.94;101280.41;5025324;28;66694;-43
2022/01/07 03:34:31;;;;;;;32.78;25.05;;;;;;;30.93;58.19;101276.25;5015686;28;69213;-39
2022/01/07 03:37:02;;;;;;;33.47;24.55;;;;;;;31.00;57.89;101278.94;5014691;28;65808;-38
2022/01/07 03:39:32;;;;;;;40.13;25.60;;;;;;;31.02;58.18;101268.72;5018089;28;69546;-38
2022/01/07 03:42:03;;;;;;;29.35;24.02;;;;;;;31.05;58.34;101265.59;5016685;28;66545;-38
2022/01/07 03:44:34;;;;;;;34.65;23.38;;;;;;;31.05;57.76;101252.03;5007193;28;70073;-39
2022/01/07 03:47:04;;;;;;;34.28;24.08;;;;;;;31.05;57.67;101246.63;5016452;28;65705;-38
2022/01/07 03:49:35;;;;;;;31.60;23.65;;;;;;;31.09;58.03;101242.44;5016955;28;69828;-38
2022/01/07 03:52:06;;;;;;;30.30;22.58;;;;;;;31.08;58.07;101240.78;5017474;28;66349;-37
2022/01/07 03:54:36;;;;;;;31.00;23.52;;;;;;;31.11;57.93;101240.34;5016291;28;70239;-38
2022/01/07 03:57:07;;;;;;;29.42;23.33;;;;;;;31.15;57.75;101230.75;5017783;28;66363;-37
2022/01/07 03:59:37;;;;;;;33.10;23.90;;;;;;;31.20;57.71;101237.41;5014265;28;71265;-38
2022/01/07 04:02:08;;;;;;;32.58;23.83;;;;;;;31.15;57.70;101228.03;5014819;28;65764;-38
2022/01/07 04:04:39;;;;;;;34.38;23.10;;;;;;;31.24;57.98;101239.47;5017858;28;70376;-38
2022/01/07 04:07:09;;;;;;;33.70;23.15;;;;;;;31.14;57.38;101218.22;5017339;28;66577;-37
2022/01/07 04:09:40;;;;;;;34.33;23.80;;;;;;;31.23;57.51;101231.53;5013969;28;69638;-37
2022/01/07 04:12:10;;;;;;;29.13;22.55;;;;;;;31.29;57.27;101233.41;5018188;28;66346;-38
2022/01/07 04:14:40;;;;;;;29.50;22.50;;;;;;;31.30;57.39;101226.94;5018151;28;69297;-38
2022/01/07 04:17:11;;;;;;;30.45;22.55;;;;;;;31.31;57.16;101225.88;5009721;28;65349;-37
2022/01/07 04:19:41;;;;;;;24.83;21.77;;;;;;;31.17;57.90;101200.72;5014688;28;70007;-37
2022/01/07 04:22:11;;;;;;;31.00;22.35;;;;;;;31.37;57.40;101216.91;5012355;28;66402;-38
2022/01/07 04:24:41;;;;;;;29.75;22.20;;;;;;;31.37;57.47;101225.91;5015075;28;69969;-39
2022/01/07 04:27:11;;;;;;;28.23;20.17;;;;;;;31.34;57.43;101207.34;5009809;28;66430;-39
2022/01/07 04:29:42;;;;;;;31.92;22.15;;;;;;;31.41;57.26;101218.16;5015118;28;69486;-38
2022/01/07 04:32:12;;;;;;;25.42;20.63;;;;;;;31.44;57.58;101206.88;5010739;28;65827;-39
2022/01/07 04:34:44;;;;;;;30.67;22.03;;;;;;;31.45;57.09;101200.41;5016791;28;68985;-40
2022/01/07 04:37:14;;;;;;;27.15;21.33;;;;;;;31.46;57.23;101193.94;5015635;28;66179;-39
2022/01/07 04:39:45;;;;;;;29.67;21.40;;;;;;;31.49;57.29;101196.22;5015703;28;69846;-39
2022/01/07 04:42:15;;;;;;;32.22;21.55;;;;;;;31.47;57.56;101190.19;5007772;28;66629;-39
2022/01/07 04:44:45;;;;;;;27.95;21.58;;;;;;;31.51;57.33;101190.56;5009869;28;70499;-39
2022/01/07 04:47:16;;;;;;;25.08;20.23;;;;;;;31.52;56.95;101190.38;5009161;28;66751;-38
2022/01/07 04:49:46;;;;;;;25.17;20.83;;;;;;;31.53;57.12;101183.88;5011781;28;70060;-39
2022/01/07 04:52:17;;;;;;;26.98;20.98;;;;;;;31.53;57.20;101170.31;5011084;28;65586;-38
2022/01/07 04:54:47;;;;;;;25.30;19.88;;;;;;;31.55;56.90;101179.09;5012614;28;70728;-37
2022/01/07 04:57:17;;;;;;;28.15;21.13;;;;;;;31.51;57.29;101172.44;5017957;28;65356;-38
2022/01/07 04:59:48;;;;;;;27.60;21.15;;;;;;;31.55;57.03;101175.53;5018455;28;70286;-39
2022/01/07 05:02:20;;;;;;;26.80;20.20;;;;;;;31.57;57.39;101174.28;5017802;28;65441;-39
2022/01/07 05:04:50;;;;;;;29.35;20.15;;;;;;;31.55;56.97;101170.13;5024267;28;69814;-39
2022/01/07 05:07:21;;;;;;;29.98;21.23;;;;;;;31.54;57.38;101163.88;5022888;28;66385;-38
2022/01/07 05:09:51;;;;;;;23.15;19.42;;;;;;;31.58;57.07;101165.09;5012046;28;69817;-38
2022/01/07 05:12:22;;;;;;;29.35;20.40;;;;;;;31.55;57.12;101157.38;5021578;28;65647;-39
2022/01/07 05:14:52;;;;;;;23.48;20.13;;;;;;;31.56;57.00;101156.31;5017126;28;70469;-38
2022/01/07 05:17:22;;;;;;;27.15;20.25;;;;;;;31.60;57.27;101157.56;5016237;28;66096;-38
2022/01/07 05:19:52;;;;;;;25.67;19.80;;;;;;;31.57;56.73;101139.03;5010843;28;69214;-38
2022/01/07 05:22:23;;;;;;;25.10;20.20;;;;;;;31.63;56.80;101140.03;5008725;28;66225;-38
2022/01/07 05:24:54;;;;;;;24.00;19.88;;;;;;;31.64;57.09;101130.00;5012639;28;70508;-38
2022/01/07 05:27:24;;;;;;;25.90;20.05;;;;;;;31.64;56.82;101130.00;5010398;28;65747;-37
2022/01/07 05:29:54;;;;;;;26.58;19.65;;;;;;;31.64;57.20;101120.00;5012552;28;69976;-39
2022/01/07 05:32:25;;;;;;;26.38;19.35;;;;;;;31.66;56.88;101114.34;5012485;28;66098;-37
2022/01/07 05:34:55;;;;;;;21.40;19.15;;;;;;;31.70;57.13;101112.84;5016263;28;68814;-37
2022/01/07 05:37:25;;;;;;;21.50;18.58;;;;;;;31.67;57.20;101097.03;5013509;28;66485;-37
2022/01/07 05:39:57;;;;;;;24.25;19.65;;;;;;;31.71;56.78;101093.66;5010812;28;69210;-38
2022/01/07 05:42:27;;;;;;;20.10;18.00;;;;;;;31.75;57.20;101099.47;5016620;28;65326;-39
2022/01/07 05:44:57;;;;;;;22.40;18.73;;;;;;;31.76;56.80;101092.97;5014935;28;70574;-38
2022/01/07 05:47:27;;;;;;;25.60;19.10;;;;;;;31.76;57.12;101090.25;5010058;28;65685;-38
2022/01/07 05:49:58;;;;;;;20.02;18.10;;;;;;;31.75;56.90;101077.75;5016356;28;70515;-38
2022/01/07 05:52:28;;;;;;;23.17;18.33;;;;;;;31.81;57.06;101066.84;5010786;28;66562;-37
2022/01/07 05:54:58;;;;;;;23.40;18.45;;;;;;;31.86;56.87;101071.63;5016722;28;70003;-38
2022/01/07 05:57:28;;;;;;;20.25;18.13;;;;;;;31.86;56.63;101063.47;5015038;28;66243;-38
2022/01/07 05:59:59;;;;;;;22.73;18.77;;;;;;;31.83;56.63;101042.22;5013648;28;69519;-38
2022/01/07 06:02:29;;;;;;;24.45;19.67;;;;;;;31.86;56.96;101046.38;5015343;28;65325;-38
2022/01/07 06:04:59;;;;;;;22.00;18.85;;;;;;;31.90;56.67;101042.16;5013543;28;69160;-38
2022/01/07 06:07:31;;;;;;;;;;;;;;;31.66;57.05;101033.00;5015519;28;43724;-38
2022/01/07 06:10:01;;;;;;;22.15;18.17;;;;;;;31.89;56.79;101029.66;5017790;28;70012;-38
2022/01/07 06:12:31;;;;;;;20.65;18.33;;;;;;;31.92;56.90;101019.19;5019369;28;66480;-41
2022/01/07 06:15:02;;;;;;;25.63;18.52;;;;;;;31.93;56.57;101015.47;5018261;28;70041;-38
2022/01/07 06:17:32;;;;;;;20.10;17.73;;;;;;;31.94;56.44;101006.25;5019374;28;66248;-38
2022/01/07 06:20:03;;;;;;;19.98;17.80;;;;;;;31.93;56.66;101010.03;5019413;28;70106;-38
2022/01/07 06:22:37;;;;;;;18.88;17.08;;;;;;;31.95;56.63;101007.91;5010044;28;65813;-38
2022/01/07 06:25:08;;;;;;;20.02;17.08;;;;;;;31.84;56.43;100981.47;5013398;28;70047;-39
2022/01/07 06:27:38;;;;;;;20.05;17.95;;;;;;;31.96;56.74;100998.72;5016803;28;66152;-39
2022/01/07 06:30:09;;;;;;;22.10;17.92;;;;;;;31.93;56.31;100982.91;5019602;28;70198;-39
2022/01/07 06:32:39;;;;;;;22.05;17.58;;;;;;;32.00;56.60;100989.06;5018324;28;66038;-39
2022/01/07 06:35:14;;;;;;;19.45;17.50;;;;;;;31.98;56.20;100985.78;5004592;28;69757;-39
2022/01/07 06:37:44;;;;;;;24.27;18.52;;;;;;;32.03;56.39;100991.31;5009311;28;65573;-39
2022/01/07 06:40:14;;;;;;;18.60;16.63;;;;;;;32.05;56.34;100986.50;5017680;28;70123;-39
2022/01/07 06:42:44;;;;;;;22.00;17.92;;;;;;;32.03;56.23;100974.22;5029089;28;66791;-39
2022/01/07 06:45:15;;;;;;;20.58;17.60;;;;;;;32.07;56.34;100966.44;5016302;28;70206;-38
2022/01/07 06:47:45;;;;;;;18.83;17.15;;;;;;;32.05;56.48;100967.53;5014669;28;66309;-37
2022/01/07 06:50:16;;;;;;;19.02;17.05;;;;;;;32.10;56.30;100960.59;5015018;28;70201;-38
2022/01/07 06:52:46;;;;;;;19.20;17.33;;;;;;;32.12;56.23;100966.59;5017696;28;66080;-39
2022/01/07 06:55:18;;;;;;;22.73;18.30;;;;;;;32.13;56.13;100960.13;5019025;28;70472;-39
2022/01/07 06:57:50;;;;;;;21.65;17.40;;;;;;;32.14;56.22;100956.34;5008546;28;67100;-38
2022/01/07 07:00:20;;;;;;;18.98;17.10;;;;;;;32.15;56.06;100955.28;5010966;28;69951;-39
2022/01/07 07:02:50;;;;;;;18.58;16.88;;;;;;;32.17;56.20;100958.63;5005830;28;66153;-38
2022/01/07 07:05:21;;;;;;;19.45;17.40;;;;;;;32.18;56.25;100946.69;5012218;28;70171;-39
2022/01/07 07:07:52;;;;;;;19.55;17.58;;;;;;;32.20;55.75;100950.00;5012421;28;66168;-38
2022/01/07 07:10:22;;;;;;;19.67;17.13;;;;;;;32.18;56.27;100936.69;5017694;28;70041;-38
2022/01/07 07:12:54;;;;;;;18.98;17.15;;;;;;;32.22;55.86;100946.03;5010853;28;66065;-38
2022/01/07 07:15:24;;;;;;;21.48;16.30;;;;;;;32.25;56.40;100936.59;5011475;28;70259;-38
2022/01/07 07:17:55;;;;;;;18.67;16.83;;;;;;;32.24;55.97;100932.22;5016777;28;65461;-38
2022/01/07 07:20:25;;;;;;;19.75;17.63;;;;;;;32.25;55.98;100931.16;5016669;28;69816;-38
2022/01/07 07:22:56;;;;;;;18.73;16.70;;;;;;;32.27;56.03;100929.06;5014379;28;66144;-38
2022/01/07 07:25:26;;;;;;;18.98;16.88;;;;;;;32.25;55.76;100923.03;5010095;28;70432;-39
2022/01/07 07:27:56;;;;;;;19.83;17.77;;;;;;;32.29;55.84;100924.25;5016263;28;65846;-39
2022/01/07 07:30:34;;;;;;;19.05;17.17;;;;;;;32.28;55.83;100922.56;5016386;28;69504;-38
2022/01/07 07:33:30;;;;;;;18.48;16.83;;;;;;;32.31;55.82;100921.28;5015697;28;67184;-38
2022/01/07 07:38:48;;;;;;;18.65;16.45;;;;;;;32.16;55.85;100883.69;5011899;28;65977;-38
2022/01/07 07:41:18;;;;;;;17.98;16.38;;;;;;;32.34;55.91;100905.34;5017978;28;70126;-40
2022/01/07 07:43:50;;;;;;;19.98;16.42;;;;;;;32.36;55.63;100911.38;5016285;28;66331;-37
2022/01/07 07:46:20;;;;;;;19.75;17.35;;;;;;;32.36;55.63;100905.97;5018015;28;68986;-37
2022/01/07 07:48:51;;;;;;;21.60;17.55;;;;;;;32.38;55.84;100903.84;5018723;28;65500;-37
2022/01/07 07:51:21;;;;;;;18.83;16.63;;;;;;;32.39;55.79;100902.78;5015344;28;70347;-37
2022/01/07 07:53:51;;;;;;;22.13;18.50;;;;;;;32.40;55.74;100901.75;5018688;28;66261;-38
2022/01/07 07:56:22;;;;;;;19.30;17.40;;;;;;;32.42;55.68;100898.78;5011386;28;70224;-37
2022/01/07 07:59:05;;;;;;;19.42;17.42;;;;;;;32.40;55.63;100890.03;4989942;28;65319;-38
2022/01/07 08:01:36;;;;;;;22.40;18.48;;;;;;;32.44;55.72;100897.50;5017883;28;69976;-37
2022/01/07 08:04:12;;;;;;;19.23;17.27;;;;;;;32.45;55.71;100888.28;5015789;28;66226;-37
2022/01/07 08:06:42;;;;;;;20.57;18.47;;;;;;;32.47;55.88;100886.19;5018348;28;69588;-38
2022/01/07 08:09:53;;;;;;;20.00;17.98;;;;;;;32.47;55.95;100891.63;5017158;28;65748;-38
2022/01/07 08:18:03;;;;;;;22.35;19.23;;;;;;;32.54;55.50;100887.97;5013255;28;69977;-38
2022/01/07 08:20:44;;;;;;;22.55;19.35;;;;;;;32.55;55.47;100886.94;5017131;28;66318;-38
2022/01/07 08:23:14;;;;;;;26.13;20.05;;;;;;;32.57;55.65;100890.22;5011980;28;70616;-38
2022/01/07 08:25:45;;;;;;;21.80;19.42;;;;;;;32.52;55.59;100881.97;5012275;28;66327;-38
2022/01/07 08:28:16;;;;;;;27.17;20.05;;;;;;;32.59;55.70;100898.97;5009973;28;69689;-38
2022/01/07 08:31:01;;;;;;;22.52;19.30;;;;;;;32.56;55.90;100888.59;5008482;28;66033;-38
2022/01/07 08:36:22;;;;;;;25.35;19.70;;;;;;;32.62;55.85;100898.50;5011098;28;65949;-37
2022/01/07 08:38:53;;;;;;;21.77;19.77;;;;;;;32.61;55.39;100903.13;5015959;28;69810;-38
2022/01/07 08:41:27;;;;;;;28.33;21.23;;;;;;;32.57;55.45;100899.22;5011187;28;65511;-38
2022/01/07 08:43:58;;;;;;;27.13;20.77;;;;;;;32.65;55.45;100906.19;5014102;28;70544;-37
2022/01/07 08:46:29;;;;;;;26.77;21.10;;;;;;;32.63;55.52;100905.63;5015777;28;66979;-37
2022/01/07 08:49:00;;;;;;;27.13;21.90;;;;;;;32.63;55.44;100905.63;5008703;28;69914;-39
2022/01/07 08:51:30;;;;;;;25.42;21.92;;;;;;;32.61;55.32;100902.31;5002937;28;67430;-39
2022/01/07 08:54:01;;;;;;;25.90;22.17;;;;;;;32.65;55.32;100914.34;5011941;28;69977;-39
2022/01/07 08:56:32;;;;;;;24.83;21.70;;;;;;;32.65;55.55;100917.06;5005712;28;65711;-39
2022/01/07 08:59:03;;;;;;;25.15;20.63;;;;;;;32.57;55.61;100911.97;5013122;28;69405;-39
2022/01/07 09:01:38;;;;;;;25.95;19.98;;;;;;;32.62;55.47;100920.25;5013434;28;66488;-39
2022/01/07 09:04:09;;;;;;;26.90;21.97;;;;;;;32.64;55.45;100923.56;5016598;28;70508;-39
2022/01/07 09:06:39;;;;;;;22.88;20.13;;;;;;;32.65;55.75;100930.66;5016728;28;65487;-39
2022/01/07 09:09:09;;;;;;;25.25;20.83;;;;;;;32.59;55.40;100923.44;5012139;28;70715;-39
2022/01/07 09:11:40;;;;;;;23.33;19.75;;;;;;;32.66;55.75;100926.88;5016061;28;65944;-39
2022/01/07 09:14:10;;;;;;;24.98;19.85;;;;;;;32.63;55.77;100916.50;5016826;28;69950;-39
2022/01/07 09:16:40;;;;;;;25.77;19.20;;;;;;;32.66;55.78;100925.00;5014875;28;65501;-39
2022/01/07 09:19:11;;;;;;;22.10;19.38;;;;;;;32.66;56.13;100937.75;5016845;28;69373;-39
2022/01/07 09:21:41;;;;;;;24.77;19.17;;;;;;;32.65;55.87;100936.06;5015129;28;66131;-39
2022/01/07 09:24:12;;;;;;;20.88;17.98;;;;;;;32.65;55.89;100945.06;5011973;28;70714;-39
2022/01/07 09:26:42;;;;;;;29.75;19.65;;;;;;;32.64;56.20;100946.13;5012929;28;66060;-39
2022/01/07 09:29:12;;;;;;;20.92;17.90;;;;;;;32.65;56.08;100946.94;5014716;28;70058;-39
2022/01/07 09:31:42;;;;;;;20.60;18.25;;;;;;;32.65;55.97;100946.94;5008939;28;65632;-38
2022/01/07 09:34:13;;;;;;;19.27;17.38;;;;;;;32.65;55.86;100946.94;5009787;28;69575;-39
2022/01/07 09:36:57;;;;;;;26.30;17.52;;;;;;;32.61;55.93;100962.06;5009581;28;66520;-38
2022/01/07 09:39:27;;;;;;;20.60;16.60;;;;;;;32.60;56.01;100965.84;5006745;28;70659;-38
2022/01/07 09:41:59;;;;;;;24.30;16.88;;;;;;;32.63;55.99;100970.81;5011884;28;65823;-38
2022/01/07 09:44:29;;;;;;;21.33;16.67;;;;;;;32.62;56.16;100980.81;5012007;28;68968;-39
2022/01/07 09:46:59;;;;;;;24.20;17.25;;;;;;;32.61;56.16;100983.78;5016065;28;66514;-38
2022/01/07 09:49:33;;;;;;;19.40;16.25;;;;;;;32.64;56.21;100988.75;5015503;28;70033;-38
2022/01/07 09:52:05;;;;;;;21.92;16.15;;;;;;;32.65;56.25;100993.09;5016882;28;66275;-38
2022/01/07 09:54:38;;;;;;;17.33;15.57;;;;;;;32.41;56.38;100956.88;5018052;28;69302;-37
2022/01/07 09:57:10;;;;;;;17.30;15.50;;;;;;;32.62;56.33;100993.56;5018323;28;66102;-38
2022/01/07 09:59:40;;;;;;;20.15;15.73;;;;;;;32.60;56.21;100998.44;5010871;28;69852;-38
2022/01/07 10:02:17;;;;;;;16.52;14.82;;;;;;;32.56;56.23;100980.91;5009297;28;66347;-39
2022/01/07 10:04:47;;;;;;;20.17;15.57;;;;;;;32.58;56.57;101000.53;5011105;28;70715;-38
2022/01/07 10:07:22;;;;;;;25.73;14.98;;;;;;;32.61;56.27;101005.50;5015542;28;67208;-37
2022/01/07 10:09:58;;;;;;;17.42;14.25;;;;;;;32.60;56.32;101009.28;5012765;28;70534;-38
2022/01/07 10:12:48;;;;;;;17.35;14.65;;;;;;;32.34;56.21;100967.78;5014066;28;66707;-39
2022/01/07 10:15:21;;;;;;;19.27;14.70;;;;;;;32.55;56.27;101020.00;4982859;28;69933;-39
2022/01/07 10:17:56;;;;;;;18.27;14.10;;;;;;;32.48;56.23;101001.91;5017399;28;66259;-39
2022/01/07 10:20:30;;;;;;;18.95;14.70;;;;;;;32.51;56.23;101010.63;5017368;28;70047;-38
2022/01/07 10:23:03;;;;;;;17.55;13.15;;;;;;;32.38;56.22;101007.00;5016271;28;66301;-38
2022/01/07 10:25:36;;;;;;;14.07;12.65;;;;;;;32.52;56.31;101037.59;5015466;28;70083;-38
2022/01/07 10:28:09;;;;;;;19.25;13.63;;;;;;;32.53;56.35;101043.84;5018416;28;66274;-38
2022/01/07 10:30:49;;;;;;;17.02;13.13;;;;;;;32.51;55.99;101048.66;5015043;28;69921;-38
2022/01/07 10:33:22;;;;;;;23.50;12.45;;;;;;;32.49;56.93;101046.19;5018408;28;66700;-38
2022/01/07 10:36:08;;;;;;;20.75;12.32;;;;;;;32.30;56.89;101015.47;5018546;28;70264;-40
2022/01/07 10:39:02;;;;;;;22.88;12.48;;;;;;;32.25;57.19;101013.41;5017204;28;66432;-38
2022/01/07 10:41:32;;;;;;;27.75;12.13;;;;;;;32.53;56.98;101043.84;5016945;28;69587;-38
2022/01/07 10:44:08;;;;;;;21.38;11.20;;;;;;;32.37;56.94;101018.91;5018338;28;65498;-38
2022/01/07 10:46:38;;;;;;;24.77;11.13;;;;;;;32.53;56.47;101052.81;5017213;28;70731;-39
2022/01/07 10:49:09;;;;;;;21.70;10.90;;;;;;;32.53;55.92;101051.97;5016947;28;66048;-39
2022/01/07 10:51:53;;;;;;;19.33;10.63;;;;;;;32.08;55.30;100990.66;5019969;28;70164;-39
2022/01/07 10:54:23;;;;;;;19.00;10.40;;;;;;;32.36;55.30;101032.72;5016131;28;65620;-39
2022/01/07 10:56:54;;;;;;;22.58;10.02;;;;;;;32.42;55.42;101059.78;5015554;28;70402;-38
2022/01/07 10:59:25;;;;;;;22.95;10.15;;;;;;;32.45;55.38;101070.19;5017339;28;65403;-40
2022/01/07 11:01:57;;;;;;;30.47;11.37;;;;;;;32.43;55.96;101068.75;5020066;28;69420;-41
2022/01/07 11:04:41;;;;;;;23.13;10.73;;;;;;;32.35;56.04;101067.19;4967112;28;65349;-41
2022/01/07 11:07:12;;;;;;;21.05;10.57;;;;;;;32.26;55.87;101066.66;5014915;28;69720;-40
2022/01/07 11:09:43;;;;;;;;;;;;;;;31.97;56.80;101072.81;5013662;28;66211;-39
2022/01/07 11:12:14;;;;;;;21.88;10.60;;;;;;;32.05;56.64;101073.34;5015410;28;69759;-40
2022/01/07 11:14:44;;;;;;;24.27;10.50;;;;;;;32.08;57.00;101092.97;5012144;28;67018;-42
2022/01/07 11:17:21;;;;;;;21.90;10.30;;;;;;;32.05;56.92;101094.22;5015490;28;70514;-42
2022/01/07 11:19:55;;;;;;;22.77;10.15;;;;;;;31.75;57.00;101056.91;5014531;28;65457;-40
2022/01/07 11:22:26;;;;;;;26.63;10.00;;;;;;;31.94;57.18;101103.91;5016202;28;69206;-42
2022/01/07 11:24:56;;;;;;;30.17;11.45;;;;;;;31.93;57.42;101112.28;5013495;28;66076;-41
2022/01/07 11:27:28;;;;;;;15.23;10.40;;;;;;;31.67;57.28;101075.34;5013926;28;70053;-41
2022/01/07 11:30:04;;;;;;;25.13;11.47;;;;;;;31.89;57.57;101105.63;5014176;28;65739;-43
2022/01/07 11:32:39;;;;;;;22.48;11.68;;;;;;;31.86;57.93;101128.59;5013489;28;70058;-42
2022/01/07 11:35:19;;;;;;;28.00;12.30;;;;;;;31.83;58.10;101120.88;5011499;28;65821;-43
2022/01/07 11:37:54;;;;;;;22.00;11.82;;;;;;;31.83;58.28;101124.44;5012797;28;70472;-41
2022/01/07 11:40:31;;;;;;;25.77;12.18;;;;;;;31.81;58.88;101131.94;5008301;28;65993;-41